Time;durP1;ratioP1;P1;durP2;ratioP2;P2;SDS_P1;SDS_P2;PMS_P1;PMS_P2;Temp;Humidity;BMP_temperature;BMP_pressure;BME280_temperature;BME280_humidity;BME280_pressure;Samples;Min_cycle;Max_cycle;Signal;HPM_P1;HPM_P2
2021/12/06 00:02:19;;;;;;;23.77;17.30;;;;;;;;;;5030203;28;20176;-72
2021/12/06 00:04:45;;;;;;;21.20;17.43;;;;;;;;;;5028983;28;20215;-73
2021/12/06 00:07:14;;;;;;;23.17;17.70;;;;;;;;;;5029305;28;21060;-71
2021/12/06 00:09:39;;;;;;;22.40;17.17;;;;;;;;;;5028317;28;20521;-73
2021/12/06 00:12:05;;;;;;;22.37;18.50;;;;;;;;;;5031589;28;20481;-71
2021/12/06 00:14:33;;;;;;;21.60;17.23;;;;;;;;;;5032695;28;20238;-72
2021/12/06 00:17:00;;;;;;;19.83;16.67;;;;;;;;;;5035143;28;20215;-72
2021/12/06 00:19:25;;;;;;;24.80;18.00;;;;;;;;;;5029820;28;21619;-74
2021/12/06 00:21:51;;;;;;;22.47;18.70;;;;;;;;;;5031254;28;20441;-74
2021/12/06 00:24:16;;;;;;;20.03;16.93;;;;;;;;;;5031180;28;20723;-71
2021/12/06 00:26:42;;;;;;;20.23;16.50;;;;;;;;;;5029675;28;20278;-70
2021/12/06 00:29:08;;;;;;;21.17;17.47;;;;;;;;;;5026349;28;20188;-72
2021/12/06 00:31:34;;;;;;;22.03;16.60;;;;;;;;;;5030655;28;20262;-71
2021/12/06 00:34:04;;;;;;;20.30;16.10;;;;;;;;;;5028550;28;21065;-74
2021/12/06 00:36:31;;;;;;;19.93;17.33;;;;;;;;;;5026693;28;20442;-73
2021/12/06 00:38:57;;;;;;;22.53;16.70;;;;;;;;;;5027912;28;20541;-73
2021/12/06 00:41:23;;;;;;;24.70;18.63;;;;;;;;;;5031682;28;20517;-73
2021/12/06 00:43:49;;;;;;;21.87;16.87;;;;;;;;;;5027316;28;20195;-72
2021/12/06 00:46:14;;;;;;;21.60;17.20;;;;;;;;;;5026333;28;20184;-73
2021/12/06 00:48:39;;;;;;;21.40;17.90;;;;;;;;;;5031096;28;20183;-71
2021/12/06 00:51:05;;;;;;;23.77;19.20;;;;;;;;;;5030529;28;20690;-73
2021/12/06 00:53:30;;;;;;;23.10;17.97;;;;;;;;;;5029882;28;20202;-72
2021/12/06 00:55:56;;;;;;;22.63;18.37;;;;;;;;;;5029513;28;20637;-72
2021/12/06 00:58:21;;;;;;;21.07;17.67;;;;;;;;;;5027321;28;20211;-72
2021/12/06 01:00:48;;;;;;;22.60;18.27;;;;;;;;;;5023046;28;20430;-72
2021/12/06 01:03:18;;;;;;;21.40;18.00;;;;;;;;;;5023115;28;20332;-72
2021/12/06 01:05:44;;;;;;;22.00;17.10;;;;;;;;;;5022656;28;20449;-73
2021/12/06 01:08:09;;;;;;;21.87;18.00;;;;;;;;;;5010820;28;20714;-72
2021/12/06 01:10:34;;;;;;;20.90;17.40;;;;;;;;;;5025173;28;20212;-72
2021/12/06 01:13:01;;;;;;;24.17;18.80;;;;;;;;;;5028457;28;20183;-71
2021/12/06 01:15:26;;;;;;;22.67;19.00;;;;;;;;;;5028870;28;20246;-71
2021/12/06 01:17:52;;;;;;;23.77;17.90;;;;;;;;;;5029379;28;20833;-72
2021/12/06 01:20:21;;;;;;;23.83;18.20;;;;;;;;;;5029751;28;20184;-73
2021/12/06 01:22:55;;;;;;;28.80;20.30;;;;;;;;;;5032213;28;20723;-72
2021/12/06 01:25:34;;;;;;;27.93;20.23;;;;;;;;;;5029412;28;20436;-71
2021/12/06 01:30:58;;;;;;;24.73;19.37;;;;;;;;;;5029912;28;20446;-72
2021/12/06 01:41:36;;;;;;;26.20;20.50;;;;;;;;;;5027188;28;20520;-71
2021/12/06 01:44:07;;;;;;;27.43;21.40;;;;;;;;;;5029963;28;20481;-71
2021/12/06 01:46:33;;;;;;;26.73;20.57;;;;;;;;;;5028295;28;20439;-71
2021/12/06 01:48:58;;;;;;;23.57;20.30;;;;;;;;;;5030024;28;20439;-71
2021/12/06 01:51:24;;;;;;;25.67;21.07;;;;;;;;;;5027629;28;20439;-71
2021/12/06 01:53:49;;;;;;;25.80;20.83;;;;;;;;;;5029487;28;20216;-71
2021/12/06 01:56:15;;;;;;;27.47;20.80;;;;;;;;;;5030080;28;20187;-71
2021/12/06 01:58:42;;;;;;;27.50;21.53;;;;;;;;;;5038950;28;20214;-73
2021/12/06 02:01:07;;;;;;;32.23;21.53;;;;;;;;;;5025071;28;20177;-70
2021/12/06 02:03:32;;;;;;;25.27;20.27;;;;;;;;;;5024363;28;20844;-71
2021/12/06 02:05:58;;;;;;;27.40;20.77;;;;;;;;;;5042428;28;20179;-72
2021/12/06 02:08:23;;;;;;;27.97;22.30;;;;;;;;;;5026367;28;20571;-72
2021/12/06 02:10:48;;;;;;;26.90;21.27;;;;;;;;;;5025771;28;20183;-72
2021/12/06 02:13:14;;;;;;;26.17;20.80;;;;;;;;;;5025191;28;20204;-71
2021/12/06 02:15:45;;;;;;;27.67;21.53;;;;;;;;;;5025724;28;20242;-71
2021/12/06 02:18:28;;;;;;;27.20;20.63;;;;;;;;;;5027250;28;20290;-71
2021/12/06 02:21:02;;;;;;;27.00;19.93;;;;;;;;;;5027332;28;20410;-71
2021/12/06 02:23:29;;;;;;;27.03;20.60;;;;;;;;;;5029840;28;20478;-70
2021/12/06 02:25:54;;;;;;;23.67;19.67;;;;;;;;;;5031819;28;20425;-71
2021/12/06 02:28:20;;;;;;;25.23;19.50;;;;;;;;;;5030461;28;20430;-71
2021/12/06 02:30:45;;;;;;;28.40;21.83;;;;;;;;;;5032941;28;20330;-71
2021/12/06 02:33:11;;;;;;;28.17;20.13;;;;;;;;;;5042990;28;20179;-73
2021/12/06 02:35:36;;;;;;;27.17;20.87;;;;;;;;;;5027533;28;20226;-71
2021/12/06 02:38:07;;;;;;;28.60;21.37;;;;;;;;;;5043818;28;20231;-73
2021/12/06 02:40:32;;;;;;;24.53;19.90;;;;;;;;;;5032645;28;20196;-72
2021/12/06 02:42:59;;;;;;;28.97;21.47;;;;;;;;;;5031699;28;20798;-73
2021/12/06 02:45:25;;;;;;;29.63;22.53;;;;;;;;;;5033057;28;20183;-72
2021/12/06 02:47:53;;;;;;;26.83;20.80;;;;;;;;;;5034452;28;20438;-72
2021/12/06 02:50:21;;;;;;;26.73;20.17;;;;;;;;;;5034262;28;20422;-70
2021/12/06 02:52:46;;;;;;;25.20;21.00;;;;;;;;;;5038357;28;20526;-70
2021/12/06 02:55:29;;;;;;;27.40;20.13;;;;;;;;;;5034889;28;20475;-69
2021/12/06 02:57:57;;;;;;;25.90;20.07;;;;;;;;;;5031997;28;20191;-69
2021/12/06 03:00:23;;;;;;;27.43;21.00;;;;;;;;;;5027336;28;21057;-69
2021/12/06 03:02:48;;;;;;;28.97;21.57;;;;;;;;;;5015798;28;20415;-71
2021/12/06 03:05:14;;;;;;;24.37;19.20;;;;;;;;;;5028447;28;20222;-71
2021/12/06 03:07:39;;;;;;;25.13;20.30;;;;;;;;;;5027871;28;20196;-71
2021/12/06 03:10:08;;;;;;;23.67;19.90;;;;;;;;;;5034006;28;20612;-72
2021/12/06 03:12:33;;;;;;;26.80;21.40;;;;;;;;;;5034541;28;20794;-74
2021/12/06 03:14:59;;;;;;;28.27;21.97;;;;;;;;;;5033554;28;20454;-71
2021/12/06 03:17:27;;;;;;;26.37;21.10;;;;;;;;;;5035252;28;20207;-74
2021/12/06 03:19:52;;;;;;;32.40;21.83;;;;;;;;;;5034566;28;20423;-76
2021/12/06 03:22:19;;;;;;;30.10;22.33;;;;;;;;;;5037495;28;20951;-73
2021/12/06 03:24:45;;;;;;;27.03;21.43;;;;;;;;;;5031809;28;20203;-72
2021/12/06 03:27:10;;;;;;;24.60;19.87;;;;;;;;;;5032568;28;20453;-73
2021/12/06 03:29:36;;;;;;;27.77;21.30;;;;;;;;;;5032698;28;20430;-73
2021/12/06 03:32:02;;;;;;;26.30;21.03;;;;;;;;;;5031787;28;20172;-73
2021/12/06 03:34:29;;;;;;;27.80;20.37;;;;;;;;;;5027677;28;20206;-72
2021/12/06 03:36:55;;;;;;;27.73;21.67;;;;;;;;;;5029760;28;20465;-76
2021/12/06 03:39:23;;;;;;;26.50;20.40;;;;;;;;;;5031516;28;20434;-72
2021/12/06 03:41:50;;;;;;;28.80;21.53;;;;;;;;;;5024719;28;20427;-74
2021/12/06 03:44:15;;;;;;;27.63;20.50;;;;;;;;;;5025923;28;20445;-72
2021/12/06 03:46:40;;;;;;;25.90;19.80;;;;;;;;;;5031933;28;20480;-73
2021/12/06 03:49:07;;;;;;;28.47;21.40;;;;;;;;;;5033671;28;20177;-74
2021/12/06 03:51:32;;;;;;;28.00;20.60;;;;;;;;;;5031176;28;20215;-72
2021/12/06 03:53:58;;;;;;;28.87;21.40;;;;;;;;;;5032138;28;20485;-71
2021/12/06 03:56:23;;;;;;;28.50;20.57;;;;;;;;;;5030908;28;20238;-73
2021/12/06 03:58:49;;;;;;;28.00;21.50;;;;;;;;;;5029078;28;20296;-73
2021/12/06 04:01:14;;;;;;;28.70;21.17;;;;;;;;;;5017650;28;20208;-72
2021/12/06 04:03:42;;;;;;;28.70;22.50;;;;;;;;;;5030905;28;20219;-72
2021/12/06 04:06:08;;;;;;;27.80;22.00;;;;;;;;;;5031409;28;20178;-73
2021/12/06 04:08:33;;;;;;;29.87;22.40;;;;;;;;;;5028814;28;20433;-73
2021/12/06 04:10:59;;;;;;;28.47;20.20;;;;;;;;;;5028036;28;21252;-72
2021/12/06 04:13:27;;;;;;;28.13;21.73;;;;;;;;;;5030569;28;20277;-77
2021/12/06 04:15:53;;;;;;;28.27;20.97;;;;;;;;;;5028552;28;20173;-72
2021/12/06 04:18:18;;;;;;;28.50;20.40;;;;;;;;;;5029785;28;20470;-73
2021/12/06 04:20:44;;;;;;;25.60;20.53;;;;;;;;;;5031117;28;20687;-70
2021/12/06 04:23:10;;;;;;;29.03;20.20;;;;;;;;;;5032911;28;20188;-70
2021/12/06 04:25:36;;;;;;;27.70;19.97;;;;;;;;;;5030180;28;20434;-70
2021/12/06 04:28:06;;;;;;;27.10;20.30;;;;;;;;;;5027698;28;20472;-70
2021/12/06 04:30:32;;;;;;;27.97;20.70;;;;;;;;;;5032097;28;20188;-70
2021/12/06 04:32:57;;;;;;;28.43;20.50;;;;;;;;;;5027594;28;20449;-70
2021/12/06 04:35:23;;;;;;;27.63;20.13;;;;;;;;;;5036040;28;20274;-72
2021/12/06 04:37:49;;;;;;;29.00;21.73;;;;;;;;;;5031917;28;20316;-70
2021/12/06 04:40:14;;;;;;;29.73;20.87;;;;;;;;;;5030386;28;20525;-71
2021/12/06 04:42:39;;;;;;;27.40;20.50;;;;;;;;;;5032317;28;20179;-70
2021/12/06 04:45:05;;;;;;;28.47;20.67;;;;;;;;;;5027254;28;23652;-70
2021/12/06 04:47:31;;;;;;;28.10;20.20;;;;;;;;;;5029348;28;20194;-70
2021/12/06 04:49:56;;;;;;;27.00;20.17;;;;;;;;;;5028883;28;20442;-70
2021/12/06 04:52:22;;;;;;;28.00;21.47;;;;;;;;;;5026092;28;20286;-72
2021/12/06 04:54:48;;;;;;;25.70;19.97;;;;;;;;;;5031708;28;20264;-71
2021/12/06 04:57:21;;;;;;;25.60;20.43;;;;;;;;;;5033021;28;20216;-70
2021/12/06 04:59:49;;;;;;;26.63;18.87;;;;;;;;;;5026775;28;20469;-71
2021/12/06 05:02:22;;;;;;;27.03;20.63;;;;;;;;;;5028411;28;20431;-70
2021/12/06 05:04:48;;;;;;;27.07;20.27;;;;;;;;;;5030424;28;20492;-70
2021/12/06 05:07:16;;;;;;;25.60;19.30;;;;;;;;;;5026226;28;20433;-71
2021/12/06 05:09:43;;;;;;;28.10;20.43;;;;;;;;;;5028481;28;20477;-70
2021/12/06 05:12:09;;;;;;;26.03;19.40;;;;;;;;;;5027569;28;20434;-73
2021/12/06 05:14:35;;;;;;;26.20;19.40;;;;;;;;;;5027926;28;20451;-70
2021/12/06 05:17:01;;;;;;;26.33;20.03;;;;;;;;;;5025390;28;20571;-72
2021/12/06 05:19:26;;;;;;;26.20;19.90;;;;;;;;;;5031129;28;20430;-72
2021/12/06 05:21:52;;;;;;;26.00;19.10;;;;;;;;;;5029795;28;20180;-71
2021/12/06 05:24:21;;;;;;;25.23;19.77;;;;;;;;;;5030735;28;21357;-72
2021/12/06 05:26:47;;;;;;;27.93;21.20;;;;;;;;;;5028827;28;20194;-71
2021/12/06 05:29:13;;;;;;;24.60;20.10;;;;;;;;;;5029525;28;20802;-70
2021/12/06 05:31:40;;;;;;;26.37;19.70;;;;;;;;;;5023136;28;20188;-72
2021/12/06 05:34:14;;;;;;;26.87;20.80;;;;;;;;;;5044945;28;20998;-72
2021/12/06 05:36:40;;;;;;;24.57;19.23;;;;;;;;;;5023492;28;20584;-72
2021/12/06 05:39:06;;;;;;;29.30;20.60;;;;;;;;;;5027054;28;20438;-72
2021/12/06 05:41:35;;;;;;;27.27;19.07;;;;;;;;;;5024597;28;20188;-71
2021/12/06 05:44:01;;;;;;;24.70;18.80;;;;;;;;;;5027999;28;20536;-72
2021/12/06 05:46:26;;;;;;;25.60;20.20;;;;;;;;;;5027679;28;20533;-73
2021/12/06 05:48:51;;;;;;;26.97;21.50;;;;;;;;;;5027702;28;20187;-72
2021/12/06 05:51:17;;;;;;;26.67;20.47;;;;;;;;;;5031627;28;20185;-74
2021/12/06 05:53:42;;;;;;;29.27;22.37;;;;;;;;;;5030988;28;20688;-73
2021/12/06 05:56:07;;;;;;;26.90;20.70;;;;;;;;;;5033361;28;20184;-74
2021/12/06 05:58:34;;;;;;;26.07;21.13;;;;;;;;;;5029454;28;20776;-75
2021/12/06 06:01:02;;;;;;;26.23;21.10;;;;;;;;;;5033283;28;20180;-74
2021/12/06 06:03:28;;;;;;;27.13;21.10;;;;;;;;;;5032101;28;20493;-74
2021/12/06 06:05:56;;;;;;;30.07;21.60;;;;;;;;;;5025530;28;21252;-73
2021/12/06 06:08:22;;;;;;;27.43;21.10;;;;;;;;;;5032373;28;20543;-69
2021/12/06 06:10:47;;;;;;;28.27;21.20;;;;;;;;;;5022969;28;20434;-71
2021/12/06 06:13:13;;;;;;;28.33;22.00;;;;;;;;;;5022219;28;20258;-71
2021/12/06 06:15:38;;;;;;;29.57;22.83;;;;;;;;;;5027614;28;20188;-71
2021/12/06 06:18:04;;;;;;;29.33;21.60;;;;;;;;;;5027733;28;20204;-71
2021/12/06 06:20:33;;;;;;;30.13;22.20;;;;;;;;;;5025312;28;20633;-72
2021/12/06 06:22:58;;;;;;;32.43;23.53;;;;;;;;;;5030105;28;20434;-71
2021/12/06 06:25:23;;;;;;;27.80;21.17;;;;;;;;;;5029166;28;21016;-72
2021/12/06 06:27:49;;;;;;;28.10;21.50;;;;;;;;;;5029571;28;20833;-70
2021/12/06 06:30:15;;;;;;;28.47;21.87;;;;;;;;;;5026320;28;20186;-72
2021/12/06 06:32:41;;;;;;;27.70;20.13;;;;;;;;;;5031577;28;21008;-71
2021/12/06 06:35:07;;;;;;;29.50;22.57;;;;;;;;;;5029289;28;20454;-72
2021/12/06 06:37:35;;;;;;;28.83;22.10;;;;;;;;;;5024948;28;20215;-72
2021/12/06 06:40:01;;;;;;;31.27;22.27;;;;;;;;;;5027438;28;20431;-71
2021/12/06 06:42:27;;;;;;;30.80;22.30;;;;;;;;;;5019296;28;20503;-71
2021/12/06 06:44:53;;;;;;;26.80;20.43;;;;;;;;;;5028474;28;20207;-72
2021/12/06 06:47:18;;;;;;;30.20;22.43;;;;;;;;;;5018442;28;20434;-74
2021/12/06 06:49:44;;;;;;;30.17;23.77;;;;;;;;;;5014690;28;20440;-72
2021/12/06 06:52:09;;;;;;;28.63;21.67;;;;;;;;;;5029003;28;20644;-70
2021/12/06 06:54:35;;;;;;;31.10;23.27;;;;;;;;;;5027476;28;20803;-72
2021/12/06 06:57:00;;;;;;;27.03;21.83;;;;;;;;;;5024529;28;20561;-70
2021/12/06 06:59:25;;;;;;;32.73;24.93;;;;;;;;;;5026919;28;20215;-73
2021/12/06 07:01:50;;;;;;;29.83;23.07;;;;;;;;;;5027740;28;20651;-71
2021/12/06 07:04:16;;;;;;;28.00;20.73;;;;;;;;;;5030326;28;20216;-71
2021/12/06 07:06:42;;;;;;;27.13;22.40;;;;;;;;;;5031808;28;20274;-70
2021/12/06 07:09:07;;;;;;;31.00;23.47;;;;;;;;;;5026852;28;20207;-71
2021/12/06 07:11:33;;;;;;;28.77;21.50;;;;;;;;;;5027018;28;21222;-73
2021/12/06 07:14:01;;;;;;;27.07;21.77;;;;;;;;;;5024776;28;20241;-70
2021/12/06 07:16:28;;;;;;;29.43;22.63;;;;;;;;;;5024780;28;20189;-71
2021/12/06 07:18:53;;;;;;;30.93;23.80;;;;;;;;;;5031326;28;20470;-71
2021/12/06 07:21:19;;;;;;;29.33;22.70;;;;;;;;;;5034764;28;20441;-72
2021/12/06 07:23:45;;;;;;;30.13;23.37;;;;;;;;;;5027507;28;20219;-70
2021/12/06 07:26:12;;;;;;;28.33;23.13;;;;;;;;;;5021470;28;20985;-71
2021/12/06 07:28:38;;;;;;;30.27;23.07;;;;;;;;;;5022569;28;20245;-72
2021/12/06 07:31:06;;;;;;;33.43;24.40;;;;;;;;;;5024257;28;20884;-71
2021/12/06 07:33:31;;;;;;;29.23;22.67;;;;;;;;;;5020676;28;20308;-71
2021/12/06 07:35:57;;;;;;;32.53;23.43;;;;;;;;;;5020171;28;20439;-72
2021/12/06 07:38:22;;;;;;;33.40;23.90;;;;;;;;;;5034273;28;20934;-71
2021/12/06 07:40:50;;;;;;;31.60;23.70;;;;;;;;;;5027143;28;20202;-71
2021/12/06 07:43:16;;;;;;;30.53;23.73;;;;;;;;;;5027503;28;20503;-72
2021/12/06 07:45:41;;;;;;;31.73;23.20;;;;;;;;;;5025083;28;21022;-75
2021/12/06 07:48:07;;;;;;;32.43;23.50;;;;;;;;;;5029252;28;20195;-73
2021/12/06 07:50:32;;;;;;;34.50;24.90;;;;;;;;;;5029878;28;21098;-72
2021/12/06 07:52:57;;;;;;;30.77;23.00;;;;;;;;;;5026407;28;20208;-74
2021/12/06 07:55:26;;;;;;;31.93;24.13;;;;;;;;;;5028933;28;20179;-73
2021/12/06 07:57:56;;;;;;;30.87;23.57;;;;;;;;;;5030602;28;20683;-74
2021/12/06 08:00:23;;;;;;;33.80;23.60;;;;;;;;;;5029321;28;20527;-74
2021/12/06 08:02:48;;;;;;;33.23;23.47;;;;;;;;;;5025753;28;20434;-72
2021/12/06 08:05:33;;;;;;;32.70;23.50;;;;;;;;;;5026970;28;20836;-72
2021/12/06 08:08:01;;;;;;;27.70;22.07;;;;;;;;;;5029901;28;20172;-72
2021/12/06 08:10:27;;;;;;;32.00;22.60;;;;;;;;;;5028953;28;20466;-71
2021/12/06 08:12:55;;;;;;;31.50;22.87;;;;;;;;;;5025898;28;20537;-72
2021/12/06 08:15:20;;;;;;;33.50;24.13;;;;;;;;;;5027917;28;20684;-72
2021/12/06 08:17:46;;;;;;;34.20;24.50;;;;;;;;;;5032365;28;20567;-71
2021/12/06 08:20:12;;;;;;;29.93;22.73;;;;;;;;;;5027374;28;20183;-71
2021/12/06 08:22:37;;;;;;;31.20;22.60;;;;;;;;;;5026141;28;20175;-72
2021/12/06 08:25:03;;;;;;;31.30;23.37;;;;;;;;;;5025572;28;20230;-71
2021/12/06 08:27:29;;;;;;;29.90;21.50;;;;;;;;;;5029837;28;21499;-73
2021/12/06 08:29:54;;;;;;;31.90;23.80;;;;;;;;;;5030340;28;20434;-71
2021/12/06 08:32:20;;;;;;;28.67;22.17;;;;;;;;;;5024297;28;20192;-70
2021/12/06 08:34:46;;;;;;;33.70;23.53;;;;;;;;;;5026414;28;20207;-70
2021/12/06 08:37:12;;;;;;;30.07;23.10;;;;;;;;;;5023544;28;20459;-73
2021/12/06 08:39:37;;;;;;;32.37;23.20;;;;;;;;;;5027656;28;20889;-70
2021/12/06 08:42:04;;;;;;;33.33;22.97;;;;;;;;;;5028971;28;20479;-72
2021/12/06 08:44:29;;;;;;;33.30;23.17;;;;;;;;;;5026556;28;20621;-70
2021/12/06 08:46:55;;;;;;;31.30;21.90;;;;;;;;;;5025087;28;20423;-69
2021/12/06 08:49:20;;;;;;;28.20;21.80;;;;;;;;;;5025923;28;20187;-70
2021/12/06 08:51:48;;;;;;;31.40;22.40;;;;;;;;;;5027213;28;20242;-69
2021/12/06 08:54:16;;;;;;;28.37;21.53;;;;;;;;;;5022722;28;20211;-69
2021/12/06 08:56:42;;;;;;;31.83;22.20;;;;;;;;;;5031132;28;20954;-71
2021/12/06 08:59:08;;;;;;;35.13;24.00;;;;;;;;;;5028234;28;20422;-70
2021/12/06 09:01:34;;;;;;;31.63;22.83;;;;;;;;;;5019282;28;20532;-70
2021/12/06 09:04:00;;;;;;;29.00;21.47;;;;;;;;;;5024905;28;20685;-69
2021/12/06 09:06:25;;;;;;;35.80;23.10;;;;;;;;;;5022232;28;20431;-72
2021/12/06 09:08:51;;;;;;;36.60;23.60;;;;;;;;;;5026302;28;23181;-72
2021/12/06 09:11:17;;;;;;;33.30;22.80;;;;;;;;;;5021130;28;20242;-70
2021/12/06 09:13:42;;;;;;;33.10;22.70;;;;;;;;;;5032206;28;20715;-71
2021/12/06 09:16:09;;;;;;;32.57;22.93;;;;;;;;;;5030009;28;20442;-73
2021/12/06 09:18:37;;;;;;;35.40;22.97;;;;;;;;;;5028149;28;20217;-71
2021/12/06 09:21:03;;;;;;;39.20;25.07;;;;;;;;;;5028994;28;20425;-73
2021/12/06 09:23:29;;;;;;;35.07;24.60;;;;;;;;;;5027315;28;20550;-72
2021/12/06 09:25:54;;;;;;;37.90;24.17;;;;;;;;;;5032096;28;20439;-73
2021/12/06 09:28:20;;;;;;;41.33;27.37;;;;;;;;;;5027022;28;20586;-70
2021/12/06 09:30:45;;;;;;;36.90;24.40;;;;;;;;;;5025413;28;20203;-72
2021/12/06 09:33:13;;;;;;;43.70;26.87;;;;;;;;;;5026799;28;20180;-73
2021/12/06 09:35:41;;;;;;;42.10;26.67;;;;;;;;;;5023631;28;20195;-71
2021/12/06 09:38:07;;;;;;;37.70;25.10;;;;;;;;;;5025996;28;20509;-71
2021/12/06 09:40:34;;;;;;;37.73;25.20;;;;;;;;;;5027346;28;21263;-72
2021/12/06 09:43:00;;;;;;;39.73;25.80;;;;;;;;;;5024521;28;20176;-71
2021/12/06 09:45:27;;;;;;;44.43;24.90;;;;;;;;;;5025025;28;20485;-70
2021/12/06 09:47:53;;;;;;;47.17;27.10;;;;;;;;;;5025662;28;20526;-72
2021/12/06 09:50:21;;;;;;;39.67;26.33;;;;;;;;;;5022464;28;20446;-72
2021/12/06 09:52:47;;;;;;;42.73;27.10;;;;;;;;;;5025616;28;20930;-73
2021/12/06 09:55:12;;;;;;;36.93;24.10;;;;;;;;;;5026795;28;20470;-71
2021/12/06 09:57:37;;;;;;;38.13;23.93;;;;;;;;;;5022383;28;20207;-74
2021/12/06 10:00:05;;;;;;;37.70;23.30;;;;;;;;;;5012779;28;20314;-72
2021/12/06 10:02:30;;;;;;;35.53;22.83;;;;;;;;;;5020458;28;20180;-72
2021/12/06 10:04:56;;;;;;;33.57;22.13;;;;;;;;;;5018603;28;20488;-71
2021/12/06 10:07:24;;;;;;;39.30;23.30;;;;;;;;;;5023332;28;20180;-74
2021/12/06 10:09:51;;;;;;;33.30;22.83;;;;;;;;;;5023061;28;20929;-71
2021/12/06 10:12:17;;;;;;;36.50;22.30;;;;;;;;;;5025626;28;20430;-71
2021/12/06 10:14:43;;;;;;;35.70;22.27;;;;;;;;;;5028526;28;20463;-74
2021/12/06 10:17:09;;;;;;;33.63;21.07;;;;;;;;;;5025312;28;20472;-71
2021/12/06 10:19:34;;;;;;;31.43;20.27;;;;;;;;;;5044920;28;20489;-73
2021/12/06 10:22:00;;;;;;;32.90;22.10;;;;;;;;;;5028245;28;20566;-71
2021/12/06 10:24:27;;;;;;;30.73;19.33;;;;;;;;;;5026526;28;20200;-71
2021/12/06 10:27:06;;;;;;;29.00;18.93;;;;;;;;;;5029647;28;20430;-71
2021/12/06 10:29:38;;;;;;;27.80;19.63;;;;;;;;;;5031074;28;20422;-71
2021/12/06 10:32:09;;;;;;;33.43;19.40;;;;;;;;;;5024209;28;20427;-71
2021/12/06 10:34:35;;;;;;;28.53;19.33;;;;;;;;;;5029000;28;20755;-71
2021/12/06 10:37:00;;;;;;;28.63;19.47;;;;;;;;;;5025773;28;20481;-71
2021/12/06 10:39:26;;;;;;;30.87;20.03;;;;;;;;;;5041339;28;20192;-71
2021/12/06 10:41:52;;;;;;;30.93;20.73;;;;;;;;;;5022455;28;20185;-75
2021/12/06 10:44:18;;;;;;;29.87;19.73;;;;;;;;;;5039267;28;20227;-73
2021/12/06 10:46:49;;;;;;;31.20;20.17;;;;;;;;;;5016369;28;20553;-73
2021/12/06 10:49:20;;;;;;;27.70;19.53;;;;;;;;;;5023955;28;20164;-72
2021/12/06 10:51:45;;;;;;;29.40;20.13;;;;;;;;;;5031937;28;20489;-69
2021/12/06 10:54:20;;;;;;;30.37;21.00;;;;;;;;;;5032468;28;20869;-72
2021/12/06 10:56:47;;;;;;;30.20;19.80;;;;;;;;;;5032343;28;20746;-73
2021/12/06 10:59:17;;;;;;;30.57;22.13;;;;;;;;;;5033138;28;20505;-75
2021/12/06 11:01:43;;;;;;;30.10;20.13;;;;;;;;;;5025503;28;20431;-73
2021/12/06 11:04:10;;;;;;;29.80;19.80;;;;;;;;;;5029088;28;20454;-73
2021/12/06 11:06:46;;;;;;;30.60;21.00;;;;;;;;;;5030384;28;20206;-72
2021/12/06 11:09:14;;;;;;;26.63;18.77;;;;;;;;;;5030623;28;20422;-71
2021/12/06 11:11:41;;;;;;;30.40;20.67;;;;;;;;;;5028033;28;20446;-72
2021/12/06 11:14:19;;;;;;;26.67;18.57;;;;;;;;;;5028681;28;20461;-70
2021/12/06 11:16:47;;;;;;;30.50;20.63;;;;;;;;;;5035125;28;20440;-71
2021/12/06 11:19:14;;;;;;;32.03;19.80;;;;;;;;;;5033599;28;20450;-72
2021/12/06 11:21:48;;;;;;;28.27;19.57;;;;;;;;;;5030784;28;20441;-73
2021/12/06 11:24:15;;;;;;;34.30;20.50;;;;;;;;;;5034526;28;20462;-70
2021/12/06 11:26:49;;;;;;;27.10;19.10;;;;;;;;;;5032385;28;20442;-70
2021/12/06 11:29:15;;;;;;;28.93;20.20;;;;;;;;;;5036113;28;20833;-69
2021/12/06 11:31:41;;;;;;;31.33;20.33;;;;;;;;;;5031458;28;20438;-72
2021/12/06 11:34:07;;;;;;;29.97;19.60;;;;;;;;;;5032403;28;20226;-71
2021/12/06 11:36:33;;;;;;;31.90;19.80;;;;;;;;;;5031718;28;20449;-74
2021/12/06 11:39:00;;;;;;;31.40;20.27;;;;;;;;;;5031663;28;20469;-70
2021/12/06 11:41:26;;;;;;;31.93;20.87;;;;;;;;;;5032417;28;20448;-72
2021/12/06 11:43:51;;;;;;;29.20;19.73;;;;;;;;;;5031625;28;20591;-72
2021/12/06 11:46:30;;;;;;;30.23;21.40;;;;;;;;;;5035448;28;20641;-70
2021/12/06 11:48:55;;;;;;;31.27;20.80;;;;;;;;;;5026717;28;20566;-71
2021/12/06 11:51:22;;;;;;;26.40;19.40;;;;;;;;;;5032284;28;20455;-71
2021/12/06 11:53:49;;;;;;;32.90;21.50;;;;;;;;;;5031934;28;20357;-72
2021/12/06 11:56:17;;;;;;;33.67;21.73;;;;;;;;;;5035878;28;20517;-71
2021/12/06 11:58:46;;;;;;;28.30;19.77;;;;;;;;;;5031781;28;20989;-73
2021/12/06 12:01:14;;;;;;;34.30;22.37;;;;;;;;;;5032635;28;20449;-70
2021/12/06 12:03:41;;;;;;;33.93;22.30;;;;;;;;;;5034217;28;20457;-70
2021/12/06 12:06:24;;;;;;;30.67;20.77;;;;;;;;;;5029097;28;21007;-72
2021/12/06 12:09:00;;;;;;;34.07;22.50;;;;;;;;;;5022903;28;20480;-71
2021/12/06 12:11:26;;;;;;;39.47;25.80;;;;;;;;;;5024836;28;20469;-71
2021/12/06 12:13:53;;;;;;;37.27;24.63;;;;;;;;;;5029717;28;20533;-70
2021/12/06 12:16:21;;;;;;;34.47;24.00;;;;;;;;;;5026726;28;20184;-74
2021/12/06 12:18:46;;;;;;;36.00;24.60;;;;;;;;;;5024831;28;20466;-70
2021/12/06 12:21:12;;;;;;;33.57;23.17;;;;;;;;;;5029380;28;20509;-72
2021/12/06 12:23:38;;;;;;;33.70;21.53;;;;;;;;;;5027626;28;20211;-71
2021/12/06 12:26:07;;;;;;;38.43;22.57;;;;;;;;;;5029333;28;20188;-70
2021/12/06 12:29:25;;;;;;;32.50;21.00;;;;;;;;;;5031969;28;20477;-71
2021/12/06 12:31:22;;;;;;;31.87;19.60;;;;;;;;;;5016575;28;20458;-71
2021/12/06 12:33:48;;;;;;;27.70;17.97;;;;;;;;;;5028507;28;21068;-73
2021/12/06 12:36:16;;;;;;;28.23;19.57;;;;;;;;;;5027213;28;20439;-74
2021/12/06 12:38:46;;;;;;;27.50;19.00;;;;;;;;;;5030523;28;20494;-73
2021/12/06 12:41:13;;;;;;;29.13;19.20;;;;;;;;;;5029129;28;20422;-71
2021/12/06 12:43:41;;;;;;;28.60;19.70;;;;;;;;;;5026938;28;20541;-73
2021/12/06 12:46:08;;;;;;;26.40;18.27;;;;;;;;;;5029470;28;20434;-72
2021/12/06 12:48:48;;;;;;;26.83;17.67;;;;;;;;;;5029734;28;21440;-72
2021/12/06 12:51:15;;;;;;;24.77;17.20;;;;;;;;;;5027303;28;20931;-71
2021/12/06 12:53:43;;;;;;;27.80;17.77;;;;;;;;;;5027513;28;20996;-71
2021/12/06 12:56:22;;;;;;;25.03;16.20;;;;;;;;;;5025332;28;20440;-71
2021/12/06 12:58:50;;;;;;;26.10;17.93;;;;;;;;;;5032832;28;20466;-70
2021/12/06 13:01:15;;;;;;;25.47;18.00;;;;;;;;;;5026197;28;20939;-71
2021/12/06 13:03:51;;;;;;;25.17;16.50;;;;;;;;;;5022300;28;20463;-70
2021/12/06 13:06:19;;;;;;;24.23;17.27;;;;;;;;;;5020760;28;20184;-73
2021/12/06 13:08:45;;;;;;;25.37;16.93;;;;;;;;;;5025051;28;20471;-70
2021/12/06 13:11:11;;;;;;;24.00;16.03;;;;;;;;;;5030417;28;20489;-72
2021/12/06 13:13:44;;;;;;;22.30;15.07;;;;;;;;;;5029123;28;20466;-71
2021/12/06 13:16:31;;;;;;;22.50;15.73;;;;;;;;;;5018180;28;20188;-75
2021/12/06 13:19:08;;;;;;;20.93;14.60;;;;;;;;;;5013269;28;20547;-74
2021/12/06 13:21:48;;;;;;;26.50;16.47;;;;;;;;;;5024921;28;20986;-72
2021/12/06 13:24:13;;;;;;;21.73;14.47;;;;;;;;;;5030785;28;20449;-74
2021/12/06 13:26:40;;;;;;;22.37;15.40;;;;;;;;;;5028958;28;20465;-73
2021/12/06 13:29:10;;;;;;;23.07;14.67;;;;;;;;;;5029920;28;20263;-72
2021/12/06 13:31:35;;;;;;;25.47;15.20;;;;;;;;;;5027233;28;20444;-72
2021/12/06 13:34:15;;;;;;;21.00;15.50;;;;;;;;;;5023427;28;20462;-73
2021/12/06 13:36:42;;;;;;;24.40;15.20;;;;;;;;;;5027130;28;20238;-72
2021/12/06 13:39:34;;;;;;;21.17;13.80;;;;;;;;;;5029069;28;20474;-69
2021/12/06 13:42:01;;;;;;;26.10;16.20;;;;;;;;;;5025082;28;21095;-69
2021/12/06 13:44:57;;;;;;;23.07;14.90;;;;;;;;;;5021504;28;20442;-69
2021/12/06 13:47:25;;;;;;;21.67;15.07;;;;;;;;;;5019082;28;20478;-71
2021/12/06 13:49:59;;;;;;;27.67;16.20;;;;;;;;;;5028510;28;20434;-73
2021/12/06 13:52:31;;;;;;;26.30;15.60;;;;;;;;;;5025022;28;20976;-72
2021/12/06 13:54:56;;;;;;;24.77;15.50;;;;;;;;;;5029382;28;20458;-71
2021/12/06 13:57:22;;;;;;;24.33;14.50;;;;;;;;;;5030408;28;21036;-71
2021/12/06 13:59:55;;;;;;;25.43;16.30;;;;;;;;;;5028361;28;20188;-72
2021/12/06 14:02:24;;;;;;;23.20;15.57;;;;;;;;;;5026397;28;20648;-69
2021/12/06 14:04:50;;;;;;;28.90;16.13;;;;;;;;;;5022899;28;21080;-72
2021/12/06 14:07:20;;;;;;;24.43;15.63;;;;;;;;;;5026595;28;20438;-71
2021/12/06 14:09:47;;;;;;;24.23;15.50;;;;;;;;;;5023869;28;20537;-72
2021/12/06 14:12:18;;;;;;;27.00;16.27;;;;;;;;;;5024809;28;20436;-70
2021/12/06 14:14:48;;;;;;;22.47;15.63;;;;;;;;;;5024150;28;20488;-69
2021/12/06 14:17:14;;;;;;;25.97;17.60;;;;;;;;;;5026587;28;20463;-72
2021/12/06 14:19:40;;;;;;;20.70;14.60;;;;;;;;;;5022779;28;20533;-73
2021/12/06 14:22:06;;;;;;;24.30;15.60;;;;;;;;;;5028565;28;21932;-71
2021/12/06 14:24:33;;;;;;;26.30;15.50;;;;;;;;;;5027201;28;20538;-72
2021/12/06 14:26:58;;;;;;;23.40;16.07;;;;;;;;;;5029791;28;20430;-70
2021/12/06 14:29:25;;;;;;;23.00;16.33;;;;;;;;;;5029523;28;22641;-70